Ramea, Canada
Current Conditions -  °F | °C
As of 4:00 PM on Monday 20 Oct 2014 (Local Time) from LFVP Reporting Station
Light Rain Light Rain  
Wind Chill: 50°   Ceiling: 2500
Heat Index: 50°   Visibility: 6mi
Dew Point: 46°   Wind: 35mph
Humidity: 87%   Direction: 240°WSW
Pressure: 29.59"   Gusts: NA
Location:  47.52°N, 57.42°W
Report Text: LFVP 201800Z 24030KT 9999 -RA FEW016 BKN025 10/08 Q1002 NOSIG
Loading
Personal Weather Stations






























Interactive Weather Map
Tropical Storm Tracking
New forecast layout! Learn more

10-Day Weather Forecast

Advertisements
Track Severe Weather on mobile